sensor_id;sensor_type;location;lat;lon;timestamp;P1;durP1;ratioP1;P2;durP2;ratioP2
21657;SDS011;10990;48.174;9.782;2024-02-15T00:00:13;4.23;;;2.53;;
21657;SDS011;10990;48.174;9.782;2024-02-15T00:02:39;3.97;;;2.90;;
21657;SDS011;10990;48.174;9.782;2024-02-15T00:05:05;6.90;;;3.33;;
21657;SDS011;10990;48.174;9.782;2024-02-15T00:07:32;6.77;;;3.10;;
21657;SDS011;10990;48.174;9.782;2024-02-15T00:09:58;4.53;;;2.67;;
21657;SDS011;10990;48.174;9.782;2024-02-15T00:12:24;4.33;;;2.50;;
21657;SDS011;10990;48.174;9.782;2024-02-15T00:14:50;4.17;;;2.30;;
21657;SDS011;10990;48.174;9.782;2024-02-15T00:17:19;4.63;;;2.37;;
21657;SDS011;10990;48.174;9.782;2024-02-15T00:19:45;4.83;;;2.40;;
21657;SDS011;10990;48.174;9.782;2024-02-15T00:22:11;5.07;;;2.33;;
21657;SDS011;10990;48.174;9.782;2024-02-15T00:24:37;5.33;;;3.10;;
21657;SDS011;10990;48.174;9.782;2024-02-15T00:27:03;5.77;;;3.00;;
21657;SDS011;10990;48.174;9.782;2024-02-15T00:29:29;4.67;;;2.57;;
21657;SDS011;10990;48.174;9.782;2024-02-15T00:31:55;4.00;;;2.60;;
21657;SDS011;10990;48.174;9.782;2024-02-15T00:34:24;4.73;;;2.83;;
21657;SDS011;10990;48.174;9.782;2024-02-15T00:36:50;4.50;;;2.80;;
21657;SDS011;10990;48.174;9.782;2024-02-15T00:39:16;4.17;;;2.40;;
21657;SDS011;10990;48.174;9.782;2024-02-15T00:41:42;3.07;;;2.10;;
21657;SDS011;10990;48.174;9.782;2024-02-15T00:44:08;5.67;;;2.70;;
21657;SDS011;10990;48.174;9.782;2024-02-15T00:46:35;4.43;;;2.63;;
21657;SDS011;10990;48.174;9.782;2024-02-15T00:49:01;4.20;;;2.73;;
21657;SDS011;10990;48.174;9.782;2024-02-15T00:51:29;3.70;;;2.50;;
21657;SDS011;10990;48.174;9.782;2024-02-15T00:53:56;4.67;;;2.20;;
21657;SDS011;10990;48.174;9.782;2024-02-15T00:56:22;2.57;;;2.10;;
21657;SDS011;10990;48.174;9.782;2024-02-15T00:58:48;3.73;;;2.13;;
21657;SDS011;10990;48.174;9.782;2024-02-15T01:01:14;5.30;;;2.40;;
21657;SDS011;10990;48.174;9.782;2024-02-15T01:03:40;6.23;;;2.80;;
21657;SDS011;10990;48.174;9.782;2024-02-15T01:06:06;2.77;;;2.20;;
21657;SDS011;10990;48.174;9.782;2024-02-15T01:08:35;3.07;;;2.47;;
21657;SDS011;10990;48.174;9.782;2024-02-15T01:11:01;3.73;;;2.40;;
21657;SDS011;10990;48.174;9.782;2024-02-15T01:13:27;4.77;;;2.40;;
21657;SDS011;10990;48.174;9.782;2024-02-15T01:15:53;3.73;;;2.50;;
21657;SDS011;10990;48.174;9.782;2024-02-15T01:18:19;3.63;;;2.20;;
21657;SDS011;10990;48.174;9.782;2024-02-15T01:20:46;4.27;;;2.33;;
21657;SDS011;10990;48.174;9.782;2024-02-15T01:23:12;4.43;;;2.53;;
21657;SDS011;10990;48.174;9.782;2024-02-15T01:25:40;5.33;;;2.97;;
21657;SDS011;10990;48.174;9.782;2024-02-15T01:28:07;3.93;;;2.70;;
21657;SDS011;10990;48.174;9.782;2024-02-15T01:30:33;3.70;;;2.50;;
21657;SDS011;10990;48.174;9.782;2024-02-15T01:32:59;3.77;;;2.63;;
21657;SDS011;10990;48.174;9.782;2024-02-15T01:35:25;5.73;;;2.77;;
21657;SDS011;10990;48.174;9.782;2024-02-15T01:37:52;4.10;;;2.80;;
21657;SDS011;10990;48.174;9.782;2024-02-15T01:40:18;6.17;;;3.60;;
21657;SDS011;10990;48.174;9.782;2024-02-15T01:42:47;5.10;;;2.93;;
21657;SDS011;10990;48.174;9.782;2024-02-15T01:45:13;5.30;;;3.50;;
21657;SDS011;10990;48.174;9.782;2024-02-15T01:47:39;7.03;;;3.57;;
21657;SDS011;10990;48.174;9.782;2024-02-15T01:50:06;5.63;;;3.17;;
21657;SDS011;10990;48.174;9.782;2024-02-15T01:52:33;4.23;;;2.80;;
21657;SDS011;10990;48.174;9.782;2024-02-15T01:55:00;5.13;;;2.97;;
21657;SDS011;10990;48.174;9.782;2024-02-15T01:57:30;5.13;;;3.30;;
21657;SDS011;10990;48.174;9.782;2024-02-15T01:59:59;6.30;;;3.00;;
21657;SDS011;10990;48.174;9.782;2024-02-15T02:02:25;5.23;;;2.53;;
21657;SDS011;10990;48.174;9.782;2024-02-15T02:04:56;3.77;;;2.60;;
21657;SDS011;10990;48.174;9.782;2024-02-15T02:07:22;3.63;;;2.77;;
21657;SDS011;10990;48.174;9.782;2024-02-15T02:09:48;6.73;;;2.40;;
21657;SDS011;10990;48.174;9.782;2024-02-15T02:12:14;3.87;;;2.67;;
21657;SDS011;10990;48.174;9.782;2024-02-15T02:14:40;4.17;;;2.60;;
21657;SDS011;10990;48.174;9.782;2024-02-15T02:17:15;4.43;;;2.47;;
21657;SDS011;10990;48.174;9.782;2024-02-15T02:19:41;2.67;;;2.20;;
21657;SDS011;10990;48.174;9.782;2024-02-15T02:22:08;4.10;;;2.33;;
21657;SDS011;10990;48.174;9.782;2024-02-15T02:24:36;4.53;;;2.40;;
21657;SDS011;10990;48.174;9.782;2024-02-15T02:27:12;5.67;;;2.30;;
21657;SDS011;10990;48.174;9.782;2024-02-15T02:29:42;3.60;;;2.07;;
21657;SDS011;10990;48.174;9.782;2024-02-15T02:32:08;4.07;;;2.40;;
21657;SDS011;10990;48.174;9.782;2024-02-15T02:34:34;4.67;;;2.40;;
21657;SDS011;10990;48.174;9.782;2024-02-15T02:37:00;3.17;;;2.00;;
21657;SDS011;10990;48.174;9.782;2024-02-15T02:39:26;3.03;;;2.10;;
21657;SDS011;10990;48.174;9.782;2024-02-15T02:41:52;3.60;;;2.37;;
21657;SDS011;10990;48.174;9.782;2024-02-15T02:44:21;3.70;;;2.20;;
21657;SDS011;10990;48.174;9.782;2024-02-15T02:46:47;4.13;;;2.40;;
21657;SDS011;10990;48.174;9.782;2024-02-15T02:49:13;3.23;;;2.30;;
21657;SDS011;10990;48.174;9.782;2024-02-15T02:51:39;5.10;;;2.70;;
21657;SDS011;10990;48.174;9.782;2024-02-15T02:54:05;2.90;;;2.07;;
21657;SDS011;10990;48.174;9.782;2024-02-15T02:56:31;2.80;;;2.03;;
21657;SDS011;10990;48.174;9.782;2024-02-15T02:58:57;4.23;;;2.03;;
21657;SDS011;10990;48.174;9.782;2024-02-15T03:01:26;2.77;;;2.00;;
21657;SDS011;10990;48.174;9.782;2024-02-15T03:03:52;2.93;;;1.83;;
21657;SDS011;10990;48.174;9.782;2024-02-15T03:06:18;3.10;;;1.83;;
21657;SDS011;10990;48.174;9.782;2024-02-15T03:08:44;2.50;;;1.90;;
21657;SDS011;10990;48.174;9.782;2024-02-15T03:11:10;2.87;;;2.00;;
21657;SDS011;10990;48.174;9.782;2024-02-15T03:13:37;2.10;;;1.90;;
21657;SDS011;10990;48.174;9.782;2024-02-15T03:16:03;3.43;;;2.00;;
21657;SDS011;10990;48.174;9.782;2024-02-15T03:18:32;2.17;;;1.87;;
21657;SDS011;10990;48.174;9.782;2024-02-15T03:20:58;2.90;;;1.80;;
21657;SDS011;10990;48.174;9.782;2024-02-15T03:23:25;2.20;;;1.70;;
21657;SDS011;10990;48.174;9.782;2024-02-15T03:25:50;4.07;;;2.07;;
21657;SDS011;10990;48.174;9.782;2024-02-15T03:28:17;3.83;;;1.73;;
21657;SDS011;10990;48.174;9.782;2024-02-15T03:30:43;2.53;;;1.60;;
21657;SDS011;10990;48.174;9.782;2024-02-15T03:33:09;3.13;;;1.70;;
21657;SDS011;10990;48.174;9.782;2024-02-15T03:35:37;3.47;;;2.03;;
21657;SDS011;10990;48.174;9.782;2024-02-15T03:38:03;2.53;;;1.90;;
21657;SDS011;10990;48.174;9.782;2024-02-15T03:40:29;1.73;;;1.50;;
21657;SDS011;10990;48.174;9.782;2024-02-15T03:42:55;2.70;;;1.70;;
21657;SDS011;10990;48.174;9.782;2024-02-15T03:45:21;3.03;;;1.60;;
21657;SDS011;10990;48.174;9.782;2024-02-15T03:47:46;3.60;;;1.70;;
21657;SDS011;10990;48.174;9.782;2024-02-15T03:50:12;2.73;;;1.50;;
21657;SDS011;10990;48.174;9.782;2024-02-15T03:52:41;2.00;;;1.70;;
21657;SDS011;10990;48.174;9.782;2024-02-15T03:55:07;2.77;;;1.57;;
21657;SDS011;10990;48.174;9.782;2024-02-15T03:57:33;2.23;;;1.50;;
21657;SDS011;10990;48.174;9.782;2024-02-15T03:59:59;3.80;;;1.60;;
21657;SDS011;10990;48.174;9.782;2024-02-15T04:02:25;2.90;;;1.33;;
21657;SDS011;10990;48.174;9.782;2024-02-15T04:04:52;1.40;;;1.20;;
21657;SDS011;10990;48.174;9.782;2024-02-15T04:07:18;2.73;;;1.67;;
21657;SDS011;10990;48.174;9.782;2024-02-15T04:09:47;2.57;;;1.20;;
21657;SDS011;10990;48.174;9.782;2024-02-15T04:12:13;2.50;;;1.50;;
21657;SDS011;10990;48.174;9.782;2024-02-15T04:14:39;2.70;;;1.50;;
21657;SDS011;10990;48.174;9.782;2024-02-15T04:17:05;2.83;;;1.57;;
21657;SDS011;10990;48.174;9.782;2024-02-15T04:19:31;1.30;;;1.20;;
21657;SDS011;10990;48.174;9.782;2024-02-15T04:21:58;4.60;;;1.80;;
21657;SDS011;10990;48.174;9.782;2024-02-15T04:24:23;3.33;;;1.60;;
21657;SDS011;10990;48.174;9.782;2024-02-15T04:26:52;3.03;;;1.80;;
21657;SDS011;10990;48.174;9.782;2024-02-15T04:29:18;4.67;;;1.70;;
21657;SDS011;10990;48.174;9.782;2024-02-15T04:31:44;3.27;;;2.00;;
21657;SDS011;10990;48.174;9.782;2024-02-15T04:34:10;3.30;;;1.80;;
21657;SDS011;10990;48.174;9.782;2024-02-15T04:36:36;2.37;;;1.70;;
21657;SDS011;10990;48.174;9.782;2024-02-15T04:39:02;3.60;;;1.87;;
21657;SDS011;10990;48.174;9.782;2024-02-15T04:41:28;3.87;;;2.00;;
21657;SDS011;10990;48.174;9.782;2024-02-15T04:43:56;5.13;;;2.00;;
21657;SDS011;10990;48.174;9.782;2024-02-15T04:46:22;3.83;;;1.70;;
21657;SDS011;10990;48.174;9.782;2024-02-15T04:48:48;3.40;;;1.93;;
21657;SDS011;10990;48.174;9.782;2024-02-15T04:51:14;3.97;;;1.90;;
21657;SDS011;10990;48.174;9.782;2024-02-15T04:53:40;3.70;;;1.90;;
21657;SDS011;10990;48.174;9.782;2024-02-15T04:56:06;3.93;;;2.00;;
21657;SDS011;10990;48.174;9.782;2024-02-15T04:58:32;2.97;;;1.87;;
21657;SDS011;10990;48.174;9.782;2024-02-15T05:01:01;2.17;;;1.90;;
21657;SDS011;10990;48.174;9.782;2024-02-15T05:03:26;3.63;;;1.77;;
21657;SDS011;10990;48.174;9.782;2024-02-15T05:05:52;3.63;;;2.10;;
21657;SDS011;10990;48.174;9.782;2024-02-15T05:08:18;3.47;;;1.80;;
21657;SDS011;10990;48.174;9.782;2024-02-15T05:10:44;3.57;;;1.70;;
21657;SDS011;10990;48.174;9.782;2024-02-15T05:13:10;3.90;;;1.90;;
21657;SDS011;10990;48.174;9.782;2024-02-15T05:15:36;4.50;;;2.03;;
21657;SDS011;10990;48.174;9.782;2024-02-15T05:18:04;5.07;;;2.43;;
21657;SDS011;10990;48.174;9.782;2024-02-15T05:20:30;4.20;;;2.60;;
21657;SDS011;10990;48.174;9.782;2024-02-15T05:22:56;7.07;;;2.80;;
21657;SDS011;10990;48.174;9.782;2024-02-15T05:25:22;3.47;;;2.40;;
21657;SDS011;10990;48.174;9.782;2024-02-15T05:27:48;7.80;;;2.30;;
21657;SDS011;10990;48.174;9.782;2024-02-15T05:30:14;5.03;;;2.23;;
21657;SDS011;10990;48.174;9.782;2024-02-15T05:32:40;4.73;;;2.47;;
21657;SDS011;10990;48.174;9.782;2024-02-15T05:35:09;7.83;;;3.43;;
21657;SDS011;10990;48.174;9.782;2024-02-15T05:37:35;75.47;;;30.33;;
21657;SDS011;10990;48.174;9.782;2024-02-15T05:40:01;37.17;;;16.33;;
21657;SDS011;10990;48.174;9.782;2024-02-15T05:42:26;17.87;;;7.33;;
21657;SDS011;10990;48.174;9.782;2024-02-15T05:44:52;9.00;;;4.20;;
21657;SDS011;10990;48.174;9.782;2024-02-15T05:47:18;8.50;;;3.13;;
21657;SDS011;10990;48.174;9.782;2024-02-15T05:49:44;6.70;;;2.63;;
21657;SDS011;10990;48.174;9.782;2024-02-15T05:52:13;4.20;;;2.57;;
21657;SDS011;10990;48.174;9.782;2024-02-15T05:54:38;4.30;;;2.60;;
21657;SDS011;10990;48.174;9.782;2024-02-15T05:57:04;5.47;;;2.77;;
21657;SDS011;10990;48.174;9.782;2024-02-15T05:59:30;4.57;;;3.00;;
21657;SDS011;10990;48.174;9.782;2024-02-15T06:01:56;6.53;;;3.60;;
21657;SDS011;10990;48.174;9.782;2024-02-15T06:04:22;9.13;;;3.53;;
21657;SDS011;10990;48.174;9.782;2024-02-15T06:06:48;6.87;;;3.13;;
21657;SDS011;10990;48.174;9.782;2024-02-15T06:09:16;7.10;;;3.10;;
21657;SDS011;10990;48.174;9.782;2024-02-15T06:11:42;7.80;;;3.30;;
21657;SDS011;10990;48.174;9.782;2024-02-15T06:14:08;6.47;;;2.80;;
21657;SDS011;10990;48.174;9.782;2024-02-15T06:16:41;5.10;;;2.73;;
21657;SDS011;10990;48.174;9.782;2024-02-15T06:19:07;6.17;;;3.10;;
21657;SDS011;10990;48.174;9.782;2024-02-15T06:21:33;6.97;;;2.83;;
21657;SDS011;10990;48.174;9.782;2024-02-15T06:23:59;10.43;;;2.97;;
21657;SDS011;10990;48.174;9.782;2024-02-15T06:26:27;10.60;;;2.80;;
21657;SDS011;10990;48.174;9.782;2024-02-15T06:28:53;9.53;;;3.20;;
21657;SDS011;10990;48.174;9.782;2024-02-15T06:31:19;9.33;;;3.10;;
21657;SDS011;10990;48.174;9.782;2024-02-15T06:33:45;10.47;;;3.10;;
21657;SDS011;10990;48.174;9.782;2024-02-15T06:36:11;5.60;;;3.17;;
21657;SDS011;10990;48.174;9.782;2024-02-15T06:38:37;7.20;;;3.20;;
21657;SDS011;10990;48.174;9.782;2024-02-15T06:41:03;9.83;;;3.23;;
21657;SDS011;10990;48.174;9.782;2024-02-15T06:43:31;11.17;;;3.10;;
21657;SDS011;10990;48.174;9.782;2024-02-15T06:45:57;7.27;;;2.77;;
21657;SDS011;10990;48.174;9.782;2024-02-15T06:48:23;11.97;;;3.20;;
21657;SDS011;10990;48.174;9.782;2024-02-15T06:50:49;6.87;;;2.90;;
21657;SDS011;10990;48.174;9.782;2024-02-15T06:53:15;7.70;;;3.80;;
21657;SDS011;10990;48.174;9.782;2024-02-15T06:55:41;8.77;;;3.70;;
21657;SDS011;10990;48.174;9.782;2024-02-15T06:58:07;7.63;;;3.27;;
21657;SDS011;10990;48.174;9.782;2024-02-15T07:00:35;8.27;;;3.30;;
21657;SDS011;10990;48.174;9.782;2024-02-15T07:03:01;5.33;;;2.90;;
21657;SDS011;10990;48.174;9.782;2024-02-15T07:05:27;5.47;;;3.00;;
21657;SDS011;10990;48.174;9.782;2024-02-15T07:07:53;5.33;;;2.90;;
21657;SDS011;10990;48.174;9.782;2024-02-15T07:10:19;6.77;;;3.10;;
21657;SDS011;10990;48.174;9.782;2024-02-15T07:12:45;10.13;;;3.20;;
21657;SDS011;10990;48.174;9.782;2024-02-15T07:15:11;11.70;;;3.90;;
21657;SDS011;10990;48.174;9.782;2024-02-15T07:17:39;8.47;;;3.57;;
21657;SDS011;10990;48.174;9.782;2024-02-15T07:20:06;7.10;;;3.27;;
21657;SDS011;10990;48.174;9.782;2024-02-15T07:22:33;8.47;;;3.20;;
21657;SDS011;10990;48.174;9.782;2024-02-15T07:24:59;6.73;;;3.27;;
21657;SDS011;10990;48.174;9.782;2024-02-15T07:27:24;6.27;;;3.00;;
21657;SDS011;10990;48.174;9.782;2024-02-15T07:29:50;6.10;;;3.10;;
21657;SDS011;10990;48.174;9.782;2024-02-15T07:32:16;8.40;;;3.30;;
21657;SDS011;10990;48.174;9.782;2024-02-15T07:34:45;8.37;;;3.40;;
21657;SDS011;10990;48.174;9.782;2024-02-15T07:37:11;8.43;;;3.60;;
21657;SDS011;10990;48.174;9.782;2024-02-15T07:39:37;8.57;;;4.20;;
21657;SDS011;10990;48.174;9.782;2024-02-15T07:42:03;9.33;;;3.87;;
21657;SDS011;10990;48.174;9.782;2024-02-15T07:44:29;14.43;;;4.07;;
21657;SDS011;10990;48.174;9.782;2024-02-15T07:46:55;9.30;;;4.00;;
21657;SDS011;10990;48.174;9.782;2024-02-15T07:49:21;14.40;;;4.30;;
21657;SDS011;10990;48.174;9.782;2024-02-15T07:51:49;10.43;;;3.93;;
21657;SDS011;10990;48.174;9.782;2024-02-15T07:54:15;14.13;;;4.20;;
21657;SDS011;10990;48.174;9.782;2024-02-15T07:56:41;8.93;;;4.43;;
21657;SDS011;10990;48.174;9.782;2024-02-15T07:59:07;7.77;;;3.70;;
21657;SDS011;10990;48.174;9.782;2024-02-15T08:01:33;10.93;;;3.80;;
21657;SDS011;10990;48.174;9.782;2024-02-15T08:03:58;12.07;;;4.90;;
21657;SDS011;10990;48.174;9.782;2024-02-15T08:06:24;9.37;;;5.13;;
21657;SDS011;10990;48.174;9.782;2024-02-15T08:08:53;10.67;;;6.53;;
21657;SDS011;10990;48.174;9.782;2024-02-15T08:11:19;13.23;;;8.80;;
21657;SDS011;10990;48.174;9.782;2024-02-15T08:13:45;12.18;;;8.27;;
21657;SDS011;10990;48.174;9.782;2024-02-15T08:16:11;12.60;;;6.90;;
21657;SDS011;10990;48.174;9.782;2024-02-15T08:18:37;8.18;;;5.70;;
21657;SDS011;10990;48.174;9.782;2024-02-15T08:21:03;9.13;;;5.80;;
21657;SDS011;10990;48.174;9.782;2024-02-15T08:23:29;12.77;;;5.75;;
21657;SDS011;10990;48.174;9.782;2024-02-15T08:25:58;6.93;;;4.72;;
21657;SDS011;10990;48.174;9.782;2024-02-15T08:28:24;10.15;;;5.10;;
21657;SDS011;10990;48.174;9.782;2024-02-15T08:30:51;10.55;;;5.70;;
21657;SDS011;10990;48.174;9.782;2024-02-15T08:33:17;11.10;;;5.40;;
21657;SDS011;10990;48.174;9.782;2024-02-15T08:35:43;11.38;;;6.25;;
21657;SDS011;10990;48.174;9.782;2024-02-15T08:38:09;13.55;;;6.03;;
21657;SDS011;10990;48.174;9.782;2024-02-15T08:40:35;11.25;;;5.82;;
21657;SDS011;10990;48.174;9.782;2024-02-15T08:43:03;7.35;;;5.18;;
21657;SDS011;10990;48.174;9.782;2024-02-15T08:45:29;11.32;;;5.07;;
21657;SDS011;10990;48.174;9.782;2024-02-15T08:47:55;8.10;;;5.40;;
21657;SDS011;10990;48.174;9.782;2024-02-15T08:50:21;9.35;;;4.55;;
21657;SDS011;10990;48.174;9.782;2024-02-15T08:52:47;5.82;;;4.05;;
21657;SDS011;10990;48.174;9.782;2024-02-15T08:55:13;7.13;;;3.83;;
21657;SDS011;10990;48.174;9.782;2024-02-15T08:57:39;10.60;;;4.47;;
21657;SDS011;10990;48.174;9.782;2024-02-15T09:00:08;10.93;;;4.38;;
21657;SDS011;10990;48.174;9.782;2024-02-15T09:02:34;7.03;;;4.40;;
21657;SDS011;10990;48.174;9.782;2024-02-15T09:05:00;6.85;;;4.55;;
21657;SDS011;10990;48.174;9.782;2024-02-15T09:07:26;7.93;;;4.38;;
21657;SDS011;10990;48.174;9.782;2024-02-15T09:09:52;7.82;;;4.30;;
21657;SDS011;10990;48.174;9.782;2024-02-15T09:12:18;7.88;;;4.63;;
21657;SDS011;10990;48.174;9.782;2024-02-15T09:14:44;7.53;;;4.30;;
21657;SDS011;10990;48.174;9.782;2024-02-15T09:17:13;6.75;;;4.15;;
21657;SDS011;10990;48.174;9.782;2024-02-15T09:19:39;7.97;;;4.65;;
21657;SDS011;10990;48.174;9.782;2024-02-15T09:22:05;6.75;;;4.32;;
21657;SDS011;10990;48.174;9.782;2024-02-15T09:24:31;5.55;;;4.00;;
21657;SDS011;10990;48.174;9.782;2024-02-15T09:26:57;5.45;;;3.65;;
21657;SDS011;10990;48.174;9.782;2024-02-15T09:29:23;8.38;;;3.83;;
21657;SDS011;10990;48.174;9.782;2024-02-15T09:31:48;6.57;;;3.75;;
21657;SDS011;10990;48.174;9.782;2024-02-15T09:34:17;5.63;;;3.40;;
21657;SDS011;10990;48.174;9.782;2024-02-15T09:36:43;6.43;;;3.45;;
21657;SDS011;10990;48.174;9.782;2024-02-15T09:39:09;5.95;;;3.67;;
21657;SDS011;10990;48.174;9.782;2024-02-15T09:41:35;6.22;;;3.55;;
21657;SDS011;10990;48.174;9.782;2024-02-15T09:44:01;6.65;;;3.70;;
21657;SDS011;10990;48.174;9.782;2024-02-15T09:46:27;5.80;;;3.75;;
21657;SDS011;10990;48.174;9.782;2024-02-15T09:48:54;4.78;;;3.40;;
21657;SDS011;10990;48.174;9.782;2024-02-15T09:51:24;8.18;;;3.85;;
21657;SDS011;10990;48.174;9.782;2024-02-15T09:53:51;6.45;;;3.97;;
21657;SDS011;10990;48.174;9.782;2024-02-15T09:56:17;5.90;;;3.58;;
21657;SDS011;10990;48.174;9.782;2024-02-15T09:58:45;4.53;;;3.38;;
21657;SDS011;10990;48.174;9.782;2024-02-15T10:01:11;7.00;;;3.42;;
21657;SDS011;10990;48.174;9.782;2024-02-15T10:03:38;5.30;;;2.80;;
21657;SDS011;10990;48.174;9.782;2024-02-15T10:06:04;3.92;;;2.97;;
21657;SDS011;10990;48.174;9.782;2024-02-15T10:08:33;5.28;;;3.00;;
21657;SDS011;10990;48.174;9.782;2024-02-15T10:11:05;4.13;;;2.42;;
21657;SDS011;10990;48.174;9.782;2024-02-15T10:13:31;4.18;;;2.38;;
21657;SDS011;10990;48.174;9.782;2024-02-15T10:15:57;4.30;;;2.92;;
21657;SDS011;10990;48.174;9.782;2024-02-15T10:18:23;9.35;;;2.85;;
21657;SDS011;10990;48.174;9.782;2024-02-15T10:20:57;4.55;;;2.88;;
21657;SDS011;10990;48.174;9.782;2024-02-15T10:23:23;6.20;;;2.88;;
21657;SDS011;10990;48.174;9.782;2024-02-15T10:25:52;5.72;;;2.95;;
21657;SDS011;10990;48.174;9.782;2024-02-15T10:28:20;4.47;;;2.50;;
21657;SDS011;10990;48.174;9.782;2024-02-15T10:30:46;3.78;;;2.40;;
21657;SDS011;10990;48.174;9.782;2024-02-15T10:33:17;6.18;;;2.72;;
21657;SDS011;10990;48.174;9.782;2024-02-15T10:35:44;4.00;;;2.67;;
21657;SDS011;10990;48.174;9.782;2024-02-15T10:38:10;5.90;;;3.10;;
21657;SDS011;10990;48.174;9.782;2024-02-15T10:40:37;2.78;;;2.28;;
21657;SDS011;10990;48.174;9.782;2024-02-15T10:43:06;3.97;;;2.70;;
21657;SDS011;10990;48.174;9.782;2024-02-15T10:45:32;4.15;;;2.60;;
21657;SDS011;10990;48.174;9.782;2024-02-15T10:48:00;3.85;;;2.40;;
21657;SDS011;10990;48.174;9.782;2024-02-15T10:50:26;5.50;;;2.95;;
21657;SDS011;10990;48.174;9.782;2024-02-15T10:52:54;4.05;;;2.30;;
21657;SDS011;10990;48.174;9.782;2024-02-15T10:55:22;4.22;;;2.53;;
21657;SDS011;10990;48.174;9.782;2024-02-15T10:58:01;5.38;;;2.50;;
21657;SDS011;10990;48.174;9.782;2024-02-15T11:00:29;5.55;;;2.50;;
21657;SDS011;10990;48.174;9.782;2024-02-15T11:03:00;5.50;;;2.70;;
21657;SDS011;10990;48.174;9.782;2024-02-15T11:05:26;3.53;;;2.30;;
21657;SDS011;10990;48.174;9.782;2024-02-15T11:07:53;2.97;;;2.20;;
21657;SDS011;10990;48.174;9.782;2024-02-15T11:10:19;2.88;;;2.00;;
21657;SDS011;10990;48.174;9.782;2024-02-15T11:12:46;5.68;;;2.50;;
21657;SDS011;10990;48.174;9.782;2024-02-15T11:15:12;2.42;;;1.80;;
21657;SDS011;10990;48.174;9.782;2024-02-15T11:18:10;3.75;;;2.00;;
21657;SDS011;10990;48.174;9.782;2024-02-15T11:20:45;3.13;;;2.30;;
21657;SDS011;10990;48.174;9.782;2024-02-15T11:23:12;3.58;;;2.08;;
21657;SDS011;10990;48.174;9.782;2024-02-15T11:25:49;3.63;;;2.00;;
21657;SDS011;10990;48.174;9.782;2024-02-15T11:31:05;3.17;;;1.90;;
21657;SDS011;10990;48.174;9.782;2024-02-15T11:33:33;3.38;;;1.95;;
21657;SDS011;10990;48.174;9.782;2024-02-15T11:36:02;3.50;;;2.00;;
21657;SDS011;10990;48.174;9.782;2024-02-15T11:38:29;5.20;;;2.80;;
21657;SDS011;10990;48.174;9.782;2024-02-15T11:41:02;4.55;;;2.67;;
21657;SDS011;10990;48.174;9.782;2024-02-15T11:46:21;3.80;;;2.60;;
21657;SDS011;10990;48.174;9.782;2024-02-15T11:48:48;6.20;;;2.40;;
21657;SDS011;10990;48.174;9.782;2024-02-15T11:54:02;6.97;;;2.50;;
21657;SDS011;10990;48.174;9.782;2024-02-15T11:56:29;3.53;;;2.10;;
21657;SDS011;10990;48.174;9.782;2024-02-15T11:59:01;4.15;;;2.13;;
21657;SDS011;10990;48.174;9.782;2024-02-15T12:01:30;3.88;;;2.33;;
21657;SDS011;10990;48.174;9.782;2024-02-15T12:03:56;5.97;;;2.58;;
21657;SDS011;10990;48.174;9.782;2024-02-15T12:06:22;3.75;;;2.20;;
21657;SDS011;10990;48.174;9.782;2024-02-15T12:08:49;4.65;;;2.30;;
21657;SDS011;10990;48.174;9.782;2024-02-15T12:11:15;3.35;;;2.22;;
21657;SDS011;10990;48.174;9.782;2024-02-15T12:13:41;3.95;;;2.10;;
21657;SDS011;10990;48.174;9.782;2024-02-15T12:16:07;2.95;;;1.88;;
21657;SDS011;10990;48.174;9.782;2024-02-15T12:18:35;3.58;;;2.10;;
21657;SDS011;10990;48.174;9.782;2024-02-15T12:21:01;4.40;;;2.47;;
21657;SDS011;10990;48.174;9.782;2024-02-15T12:23:28;4.10;;;2.30;;
21657;SDS011;10990;48.174;9.782;2024-02-15T12:25:54;6.53;;;2.63;;
21657;SDS011;10990;48.174;9.782;2024-02-15T12:28:20;3.38;;;1.90;;
21657;SDS011;10990;48.174;9.782;2024-02-15T12:30:46;3.20;;;1.95;;
21657;SDS011;10990;48.174;9.782;2024-02-15T12:33:20;5.20;;;2.03;;
21657;SDS011;10990;48.174;9.782;2024-02-15T12:35:49;2.53;;;1.73;;
21657;SDS011;10990;48.174;9.782;2024-02-15T12:38:14;3.63;;;2.08;;
21657;SDS011;10990;48.174;9.782;2024-02-15T12:40:40;3.78;;;1.83;;
21657;SDS011;10990;48.174;9.782;2024-02-15T12:43:06;2.67;;;1.70;;
21657;SDS011;10990;48.174;9.782;2024-02-15T12:45:35;4.43;;;2.00;;
21657;SDS011;10990;48.174;9.782;2024-02-15T12:48:03;3.92;;;1.75;;
21657;SDS011;10990;48.174;9.782;2024-02-15T12:50:30;4.93;;;1.90;;
21657;SDS011;10990;48.174;9.782;2024-02-15T12:52:59;5.43;;;2.20;;
21657;SDS011;10990;48.174;9.782;2024-02-15T12:55:25;3.97;;;2.00;;
21657;SDS011;10990;48.174;9.782;2024-02-15T12:57:51;2.20;;;1.80;;
21657;SDS011;10990;48.174;9.782;2024-02-15T13:00:19;2.92;;;1.90;;
21657;SDS011;10990;48.174;9.782;2024-02-15T13:02:47;2.13;;;1.55;;
21657;SDS011;10990;48.174;9.782;2024-02-15T13:05:14;4.15;;;1.98;;
21657;SDS011;10990;48.174;9.782;2024-02-15T13:07:40;2.05;;;1.52;;
21657;SDS011;10990;48.174;9.782;2024-02-15T13:10:09;4.30;;;2.15;;
21657;SDS011;10990;48.174;9.782;2024-02-15T13:12:35;2.95;;;1.80;;
21657;SDS011;10990;48.174;9.782;2024-02-15T13:15:02;2.13;;;1.65;;
21657;SDS011;10990;48.174;9.782;2024-02-15T13:17:29;6.15;;;2.00;;
21657;SDS011;10990;48.174;9.782;2024-02-15T13:19:54;2.58;;;1.70;;
21657;SDS011;10990;48.174;9.782;2024-02-15T13:22:20;2.28;;;1.77;;
21657;SDS011;10990;48.174;9.782;2024-02-15T13:24:46;3.88;;;1.92;;
21657;SDS011;10990;48.174;9.782;2024-02-15T13:27:15;3.65;;;1.70;;
21657;SDS011;10990;48.174;9.782;2024-02-15T13:29:41;2.95;;;1.88;;
21657;SDS011;10990;48.174;9.782;2024-02-15T13:32:06;4.57;;;2.05;;
21657;SDS011;10990;48.174;9.782;2024-02-15T13:34:32;3.38;;;2.15;;
21657;SDS011;10990;48.174;9.782;2024-02-15T13:36:58;3.67;;;1.95;;
21657;SDS011;10990;48.174;9.782;2024-02-15T13:39:27;3.35;;;2.17;;
21657;SDS011;10990;48.174;9.782;2024-02-15T13:41:54;2.80;;;2.00;;
21657;SDS011;10990;48.174;9.782;2024-02-15T13:44:22;3.22;;;1.98;;
21657;SDS011;10990;48.174;9.782;2024-02-15T13:46:48;4.88;;;2.20;;
21657;SDS011;10990;48.174;9.782;2024-02-15T13:49:14;3.85;;;2.17;;
21657;SDS011;10990;48.174;9.782;2024-02-15T13:51:40;5.22;;;2.10;;
21657;SDS011;10990;48.174;9.782;2024-02-15T13:54:06;4.13;;;2.30;;
21657;SDS011;10990;48.174;9.782;2024-02-15T13:56:32;4.65;;;2.13;;
21657;SDS011;10990;48.174;9.782;2024-02-15T13:58:57;3.25;;;2.00;;
21657;SDS011;10990;48.174;9.782;2024-02-15T14:01:26;5.40;;;2.20;;
21657;SDS011;10990;48.174;9.782;2024-02-15T14:03:52;3.63;;;1.90;;
21657;SDS011;10990;48.174;9.782;2024-02-15T14:06:18;3.30;;;1.92;;
21657;SDS011;10990;48.174;9.782;2024-02-15T14:08:43;4.38;;;2.30;;
21657;SDS011;10990;48.174;9.782;2024-02-15T14:11:09;4.13;;;2.08;;
21657;SDS011;10990;48.174;9.782;2024-02-15T14:13:35;5.50;;;2.40;;
21657;SDS011;10990;48.174;9.782;2024-02-15T14:16:01;3.65;;;1.90;;
21657;SDS011;10990;48.174;9.782;2024-02-15T14:18:30;2.88;;;1.85;;
21657;SDS011;10990;48.174;9.782;2024-02-15T14:20:56;4.05;;;2.30;;
21657;SDS011;10990;48.174;9.782;2024-02-15T14:23:22;2.55;;;2.00;;
21657;SDS011;10990;48.174;9.782;2024-02-15T14:25:48;4.15;;;2.10;;
21657;SDS011;10990;48.174;9.782;2024-02-15T14:28:14;4.15;;;2.20;;
21657;SDS011;10990;48.174;9.782;2024-02-15T14:30:40;3.97;;;2.25;;
21657;SDS011;10990;48.174;9.782;2024-02-15T14:33:05;6.93;;;2.60;;
21657;SDS011;10990;48.174;9.782;2024-02-15T14:35:35;4.82;;;2.67;;
21657;SDS011;10990;48.174;9.782;2024-02-15T14:38:02;4.45;;;2.20;;
21657;SDS011;10990;48.174;9.782;2024-02-15T14:40:28;3.30;;;2.03;;
21657;SDS011;10990;48.174;9.782;2024-02-15T14:42:54;4.75;;;2.10;;
21657;SDS011;10990;48.174;9.782;2024-02-15T14:45:20;5.22;;;2.10;;
21657;SDS011;10990;48.174;9.782;2024-02-15T14:47:46;3.05;;;1.90;;
21657;SDS011;10990;48.174;9.782;2024-02-15T14:50:12;2.15;;;1.75;;